DLH187 LICR-LGKR
Flight info
| Callsign | DLH187 |
|---|---|
| Flight time | 0h 46m |
| Altitude | 30000 |
| Route | RCA L137 CDC L869 GEMVI DCT LATAN |
| Aircraft | A320/M-SDE3FGHIRWY/LB1 |
Departure
| Time | 2026-04-23 00:47 |
|---|---|
| Airport | Reggio Calabria Airport (LICR) |
Arrival
| Time | 2026-04-23 01:33 |
|---|---|
| Airport | Corfu Ioannis Kapodistrias International Airport (LGKR) |
| Time | Latitude | Longitude | Altitude | Speed | Heading |
|---|---|---|---|---|---|
| 2026-04-23 00:24 | 38.07313 | 15.65328 | 62 ft | 0 kts | 51° |
| 2026-04-23 00:39 | 38.07312 | 15.65327 | 62 ft | 1 kts | 51° |
| 2026-04-23 00:40 | 38.07297 | 15.65303 | 54 ft | 4 kts | 47° |
| 2026-04-23 00:40 | 38.07281 | 15.65287 | 54 ft | 3 kts | 340° |
| 2026-04-23 00:40 | 38.07276 | 15.65289 | 55 ft | 0 kts | 332° |
| 2026-04-23 00:43 | 38.07295 | 15.65276 | 55 ft | 6 kts | 332° |
| 2026-04-23 00:43 | 38.07328 | 15.65237 | 59 ft | 14 kts | 287° |
| 2026-04-23 00:43 | 38.07286 | 15.65099 | 59 ft | 17 kts | 233° |
| 2026-04-23 00:44 | 38.07184 | 15.65114 | 59 ft | 16 kts | 155° |
| 2026-04-23 00:44 | 38.07075 | 15.65179 | 56 ft | 18 kts | 155° |
| 2026-04-23 00:44 | 38.06956 | 15.65257 | 63 ft | 20 kts | 153° |
| 2026-04-23 00:44 | 38.06827 | 15.65340 | 56 ft | 22 kts | 153° |
| 2026-04-23 00:45 | 38.06686 | 15.65436 | 58 ft | 24 kts | 151° |
| 2026-04-23 00:45 | 38.06539 | 15.65546 | 53 ft | 25 kts | 147° |
| 2026-04-23 00:45 | 38.06474 | 15.65643 | 57 ft | 8 kts | 158° |
| 2026-04-23 00:45 | 38.06450 | 15.65603 | 57 ft | 6 kts | 287° |
| 2026-04-23 00:46 | 38.06459 | 15.65592 | 55 ft | 0 kts | 317° |
| 2026-04-23 00:46 | 38.06494 | 15.65562 | 53 ft | 31 kts | 330° |
| 2026-04-23 00:46 | 38.06947 | 15.65264 | 63 ft | 111 kts | 333° |
| 2026-04-23 00:47 | 38.07819 | 15.64685 | 165 ft | 161 kts | 330° |
| 2026-04-23 00:47 | 38.08794 | 15.63974 | 928 ft | 161 kts | 315° |
| 2026-04-23 00:47 | 38.09303 | 15.62729 | 1652 ft | 167 kts | 275° |
| 2026-04-23 00:47 | 38.09035 | 15.61238 | 2077 ft | 185 kts | 236° |
| 2026-04-23 00:48 | 38.07928 | 15.60323 | 2378 ft | 204 kts | 188° |
| 2026-04-23 00:48 | 38.06501 | 15.60500 | 3079 ft | 208 kts | 169° |
| 2026-04-23 00:48 | 38.05075 | 15.60874 | 3838 ft | 211 kts | 170° |
| 2026-04-23 00:48 | 38.03619 | 15.61269 | 4548 ft | 216 kts | 171° |
| 2026-04-23 00:49 | 38.02125 | 15.61583 | 5237 ft | 219 kts | 186° |
| 2026-04-23 00:49 | 38.00662 | 15.61132 | 5889 ft | 218 kts | 207° |
| 2026-04-23 00:49 | 37.99246 | 15.60395 | 6584 ft | 222 kts | 209° |
| 2026-04-23 00:49 | 37.97816 | 15.59638 | 7272 ft | 224 kts | 210° |
| 2026-04-23 00:50 | 37.96370 | 15.58875 | 7975 ft | 226 kts | 210° |
| 2026-04-23 00:50 | 37.94912 | 15.58108 | 8707 ft | 228 kts | 210° |
| 2026-04-23 00:50 | 37.93442 | 15.57337 | 9442 ft | 230 kts | 211° |
| 2026-04-23 00:50 | 37.91958 | 15.56560 | 10157 ft | 232 kts | 211° |
| 2026-04-23 00:51 | 37.90460 | 15.55777 | 10811 ft | 234 kts | 211° |
| 2026-04-23 00:51 | 37.88945 | 15.54984 | 11459 ft | 237 kts | 211° |
| 2026-04-23 00:51 | 37.87557 | 15.53937 | 12082 ft | 228 kts | 233° |
| 2026-04-23 00:51 | 37.86695 | 15.52336 | 12729 ft | 217 kts | 257° |
| 2026-04-23 00:52 | 37.86475 | 15.50495 | 13395 ft | 211 kts | 279° |
| 2026-04-23 00:52 | 37.86879 | 15.48734 | 14039 ft | 210 kts | 300° |
| 2026-04-23 00:52 | 37.87814 | 15.47340 | 14625 ft | 215 kts | 320° |
| 2026-04-23 00:52 | 37.89189 | 15.46527 | 15214 ft | 226 kts | 342° |
| 2026-04-23 00:53 | 37.90834 | 15.46543 | 15557 ft | 256 kts | 8° |
| 2026-04-23 00:53 | 37.92495 | 15.47727 | 15722 ft | 294 kts | 32° |
| 2026-04-23 00:53 | 37.94114 | 15.49478 | 15883 ft | 316 kts | 34° |
| 2026-04-23 00:53 | 37.95803 | 15.51343 | 16280 ft | 328 kts | 34° |
| 2026-04-23 00:54 | 37.97601 | 15.53273 | 16404 ft | 349 kts | 33° |
| 2026-04-23 00:54 | 37.99516 | 15.55289 | 16528 ft | 367 kts | 33° |
| 2026-04-23 00:54 | 38.01537 | 15.57404 | 16684 ft | 385 kts | 33° |
| 2026-04-23 00:54 | 38.03619 | 15.59596 | 17106 ft | 393 kts | 34° |
| 2026-04-23 00:55 | 38.05726 | 15.61833 | 17648 ft | 397 kts | 34° |
| 2026-04-23 00:55 | 38.07848 | 15.64105 | 18226 ft | 401 kts | 34° |
| 2026-04-23 00:55 | 38.09989 | 15.66404 | 18736 ft | 404 kts | 34° |
| 2026-04-23 00:55 | 38.12143 | 15.68719 | 19224 ft | 408 kts | 34° |
| 2026-04-23 00:56 | 38.14317 | 15.71054 | 19703 ft | 411 kts | 33° |
| 2026-04-23 00:56 | 38.16512 | 15.73409 | 20207 ft | 414 kts | 34° |
| 2026-04-23 00:56 | 38.18724 | 15.75780 | 20672 ft | 418 kts | 33° |
| 2026-04-23 00:56 | 38.20954 | 15.78173 | 21160 ft | 421 kts | 34° |
| 2026-04-23 00:57 | 38.23198 | 15.80586 | 21623 ft | 424 kts | 34° |
| 2026-04-23 00:57 | 38.25463 | 15.83022 | 22079 ft | 428 kts | 34° |
| 2026-04-23 00:57 | 38.27746 | 15.85478 | 22526 ft | 431 kts | 33° |
| 2026-04-23 00:57 | 38.30045 | 15.87951 | 22959 ft | 434 kts | 33° |
| 2026-04-23 00:58 | 38.32359 | 15.90439 | 23381 ft | 437 kts | 33° |
| 2026-04-23 00:58 | 38.34690 | 15.92948 | 23775 ft | 440 kts | 33° |
| 2026-04-23 00:58 | 38.37034 | 15.95476 | 24136 ft | 443 kts | 33° |
| 2026-04-23 00:58 | 38.39391 | 15.98025 | 24495 ft | 445 kts | 34° |
| 2026-04-23 00:59 | 38.41758 | 16.00588 | 24866 ft | 448 kts | 33° |
| 2026-04-23 00:59 | 38.43333 | 16.02295 | 25093 ft | 450 kts | 33° |
| 2026-04-23 00:59 | 38.46536 | 16.05770 | 25576 ft | 453 kts | 33° |
| 2026-04-23 00:59 | 38.48946 | 16.08370 | 25933 ft | 455 kts | 33° |
| 2026-04-23 01:00 | 38.51380 | 16.10972 | 26281 ft | 457 kts | 33° |
| 2026-04-23 01:00 | 38.53829 | 16.13578 | 26629 ft | 460 kts | 33° |
| 2026-04-23 01:00 | 38.55462 | 16.15315 | 26851 ft | 461 kts | 33° |
| 2026-04-23 01:00 | 38.58769 | 16.18837 | 27278 ft | 464 kts | 33° |
| 2026-04-23 01:01 | 38.61254 | 16.21491 | 27615 ft | 467 kts | 33° |
| 2026-04-23 01:01 | 38.63748 | 16.24162 | 27916 ft | 469 kts | 33° |
| 2026-04-23 01:01 | 38.66217 | 16.26816 | 28242 ft | 471 kts | 33° |
| 2026-04-23 01:01 | 38.68766 | 16.29557 | 28530 ft | 474 kts | 33° |
| 2026-04-23 01:02 | 38.71262 | 16.32242 | 28812 ft | 476 kts | 33° |
| 2026-04-23 01:02 | 38.73680 | 16.35193 | 29089 ft | 486 kts | 42° |
| 2026-04-23 01:02 | 38.75777 | 16.38633 | 29366 ft | 495 kts | 51° |
| 2026-04-23 01:02 | 38.77499 | 16.42556 | 29746 ft | 502 kts | 60° |
| 2026-04-23 01:03 | 38.78899 | 16.46655 | 30125 ft | 502 kts | 62° |
| 2026-04-23 01:03 | 38.80291 | 16.50758 | 30458 ft | 501 kts | 62° |
| 2026-04-23 01:03 | 38.81683 | 16.54854 | 30811 ft | 500 kts | 62° |
| 2026-04-23 01:03 | 38.83069 | 16.58938 | 31141 ft | 499 kts | 62° |
| 2026-04-23 01:04 | 38.84452 | 16.63019 | 31550 ft | 498 kts | 62° |
| 2026-04-23 01:04 | 38.85828 | 16.67089 | 31921 ft | 496 kts | 62° |
| 2026-04-23 01:04 | 38.88562 | 16.75205 | 32604 ft | 495 kts | 62° |
| 2026-04-23 01:05 | 38.89924 | 16.79262 | 32948 ft | 494 kts | 62° |
| 2026-04-23 01:05 | 38.91282 | 16.83320 | 33076 ft | 495 kts | 62° |
| 2026-04-23 01:05 | 38.93981 | 16.91383 | 33089 ft | 495 kts | 62° |
| 2026-04-23 01:06 | 38.96692 | 16.99507 | 33089 ft | 495 kts | 62° |
| 2026-04-23 01:06 | 38.99331 | 17.07683 | 33097 ft | 499 kts | 67° |
| 2026-04-23 01:07 | 39.00932 | 17.16423 | 33085 ft | 504 kts | 75° |
| 2026-04-23 01:07 | 39.02380 | 17.25242 | 33077 ft | 504 kts | 74° |
| 2026-04-23 01:08 | 39.03600 | 17.32621 | 33082 ft | 504 kts | 74° |
| 2026-04-23 01:08 | 39.05037 | 17.41448 | 33088 ft | 504 kts | 75° |
| 2026-04-23 01:09 | 39.06461 | 17.50277 | 33066 ft | 504 kts | 75° |
| 2026-04-23 01:09 | 39.07878 | 17.59112 | 33059 ft | 505 kts | 75° |
| 2026-04-23 01:10 | 39.09287 | 17.67962 | 33050 ft | 505 kts | 75° |
| 2026-04-23 01:10 | 39.10694 | 17.76825 | 33086 ft | 506 kts | 75° |
| 2026-04-23 01:11 | 39.12099 | 17.85715 | 33059 ft | 507 kts | 75° |
| 2026-04-23 01:11 | 39.13491 | 17.94621 | 33048 ft | 508 kts | 75° |
| 2026-04-23 01:12 | 39.14866 | 18.03550 | 33044 ft | 509 kts | 75° |
| 2026-04-23 01:12 | 39.16237 | 18.12491 | 33046 ft | 509 kts | 75° |
| 2026-04-23 01:13 | 39.17603 | 18.21437 | 33041 ft | 509 kts | 75° |
| 2026-04-23 01:13 | 39.18958 | 18.30327 | 33042 ft | 509 kts | 75° |
| 2026-04-23 01:14 | 39.19637 | 18.34806 | 32808 ft | 510 kts | 75° |
| 2026-04-23 01:14 | 39.20321 | 18.39312 | 31505 ft | 514 kts | 75° |
| 2026-04-23 01:14 | 39.21010 | 18.43845 | 30136 ft | 515 kts | 75° |
| 2026-04-23 01:14 | 39.21696 | 18.48375 | 28714 ft | 514 kts | 75° |
| 2026-04-23 01:15 | 39.22367 | 18.52851 | 27891 ft | 500 kts | 75° |
| 2026-04-23 01:15 | 39.23013 | 18.57221 | 27169 ft | 496 kts | 75° |
| 2026-04-23 01:15 | 39.23662 | 18.61588 | 26378 ft | 495 kts | 75° |
| 2026-04-23 01:15 | 39.24313 | 18.65947 | 25610 ft | 495 kts | 75° |
| 2026-04-23 01:16 | 39.24964 | 18.70301 | 24854 ft | 494 kts | 75° |
| 2026-04-23 01:16 | 39.25613 | 18.74656 | 24096 ft | 494 kts | 75° |
| 2026-04-23 01:16 | 39.26258 | 18.79002 | 23319 ft | 494 kts | 75° |
| 2026-04-23 01:16 | 39.26899 | 18.83349 | 22554 ft | 491 kts | 75° |
| 2026-04-23 01:17 | 39.27531 | 18.87662 | 21860 ft | 487 kts | 76° |
| 2026-04-23 01:17 | 39.28154 | 18.91944 | 21201 ft | 484 kts | 76° |
| 2026-04-23 01:17 | 39.28772 | 18.96195 | 20587 ft | 479 kts | 76° |
| 2026-04-23 01:17 | 39.29382 | 19.00397 | 20046 ft | 473 kts | 76° |
| 2026-04-23 01:18 | 39.29986 | 19.04544 | 19512 ft | 468 kts | 76° |
| 2026-04-23 01:18 | 39.30582 | 19.08651 | 18990 ft | 463 kts | 76° |
| 2026-04-23 01:18 | 39.31169 | 19.12711 | 18488 ft | 458 kts | 76° |
| 2026-04-23 01:18 | 39.31744 | 19.16745 | 17917 ft | 455 kts | 77° |
| 2026-04-23 01:19 | 39.32311 | 19.20734 | 17414 ft | 449 kts | 76° |
| 2026-04-23 01:19 | 39.33108 | 19.24583 | 16912 ft | 439 kts | 65° |
| 2026-04-23 01:19 | 39.34355 | 19.28123 | 16369 ft | 429 kts | 56° |
| 2026-04-23 01:19 | 39.35785 | 19.31479 | 15858 ft | 424 kts | 56° |
| 2026-04-23 01:20 | 39.37193 | 19.34810 | 15312 ft | 421 kts | 56° |
| 2026-04-23 01:20 | 39.38584 | 19.38120 | 14780 ft | 417 kts | 57° |
| 2026-04-23 01:20 | 39.39974 | 19.41399 | 14193 ft | 412 kts | 53° |
| 2026-04-23 01:20 | 39.41748 | 19.44120 | 13618 ft | 382 kts | 33° |
| 2026-04-23 01:21 | 39.43946 | 19.45809 | 12884 ft | 362 kts | 15° |
| 2026-04-23 01:21 | 39.46372 | 19.46438 | 12218 ft | 351 kts | 356° |
| 2026-04-23 01:21 | 39.48749 | 19.46082 | 11625 ft | 342 kts | 341° |
| 2026-04-23 01:21 | 39.51015 | 19.45210 | 11047 ft | 338 kts | 342° |
| 2026-04-23 01:22 | 39.53313 | 19.44660 | 10681 ft | 334 kts | 358° |
| 2026-04-23 01:22 | 39.55507 | 19.45399 | 10551 ft | 326 kts | 26° |
| 2026-04-23 01:22 | 39.57091 | 19.47365 | 10422 ft | 312 kts | 56° |
| 2026-04-23 01:22 | 39.57698 | 19.50038 | 10174 ft | 314 kts | 87° |
| 2026-04-23 01:23 | 39.57384 | 19.52822 | 9925 ft | 311 kts | 99° |
| 2026-04-23 01:23 | 39.56939 | 19.55547 | 9791 ft | 308 kts | 99° |
| 2026-04-23 01:23 | 39.56364 | 19.58220 | 9650 ft | 310 kts | 115° |
| 2026-04-23 01:23 | 39.55047 | 19.60384 | 9509 ft | 308 kts | 143° |
| 2026-04-23 01:24 | 39.53288 | 19.61979 | 9379 ft | 308 kts | 147° |
| 2026-04-23 01:24 | 39.51493 | 19.63510 | 9047 ft | 310 kts | 148° |
| 2026-04-23 01:24 | 39.49678 | 19.65025 | 8541 ft | 312 kts | 148° |
| 2026-04-23 01:24 | 39.47865 | 19.66531 | 8214 ft | 308 kts | 148° |
| 2026-04-23 01:25 | 39.46074 | 19.68018 | 7839 ft | 305 kts | 147° |
| 2026-04-23 01:25 | 39.44294 | 19.69501 | 7469 ft | 302 kts | 147° |
| 2026-04-23 01:25 | 39.42548 | 19.70969 | 7114 ft | 296 kts | 144° |
| 2026-04-23 01:25 | 39.41073 | 19.72778 | 6470 ft | 291 kts | 123° |
| 2026-04-23 01:26 | 39.40129 | 19.75063 | 5716 ft | 287 kts | 104° |
| 2026-04-23 01:26 | 39.39786 | 19.77569 | 5185 ft | 281 kts | 85° |
| 2026-04-23 01:26 | 39.39822 | 19.80070 | 4794 ft | 277 kts | 85° |
| 2026-04-23 01:26 | 39.39860 | 19.82561 | 4339 ft | 277 kts | 85° |
| 2026-04-23 01:27 | 39.39893 | 19.85048 | 4001 ft | 273 kts | 85° |
| 2026-04-23 01:27 | 39.39959 | 19.87411 | 4022 ft | 254 kts | 79° |
| 2026-04-23 01:27 | 39.40376 | 19.89587 | 3762 ft | 244 kts | 70° |
| 2026-04-23 01:27 | 39.40840 | 19.91605 | 3626 ft | 226 kts | 69° |
| 2026-04-23 01:28 | 39.41269 | 19.93491 | 3515 ft | 211 kts | 69° |
| 2026-04-23 01:28 | 39.41671 | 19.95248 | 3432 ft | 195 kts | 66° |
| 2026-04-23 01:28 | 39.42345 | 19.96597 | 3329 ft | 168 kts | 34° |
| 2026-04-23 01:28 | 39.43332 | 19.97175 | 3184 ft | 149 kts | 4° |
| 2026-04-23 01:29 | 39.44318 | 19.97050 | 3005 ft | 139 kts | 343° |
| 2026-04-23 01:29 | 39.45239 | 19.96700 | 2814 ft | 137 kts | 343° |
| 2026-04-23 01:29 | 39.46150 | 19.96359 | 2625 ft | 136 kts | 343° |
| 2026-04-23 01:29 | 39.47060 | 19.96019 | 2439 ft | 136 kts | 345° |
| 2026-04-23 01:30 | 39.47965 | 19.95682 | 2255 ft | 135 kts | 344° |
| 2026-04-23 01:30 | 39.48866 | 19.95345 | 2080 ft | 135 kts | 344° |
| 2026-04-23 01:30 | 39.49763 | 19.95010 | 1904 ft | 134 kts | 345° |
| 2026-04-23 01:30 | 39.50657 | 19.94676 | 1727 ft | 134 kts | 344° |
| 2026-04-23 01:31 | 39.51550 | 19.94341 | 1552 ft | 134 kts | 343° |
| 2026-04-23 01:31 | 39.52426 | 19.94011 | 1379 ft | 132 kts | 342° |
| 2026-04-23 01:31 | 39.53323 | 19.93675 | 1193 ft | 133 kts | 342° |
| 2026-04-23 01:31 | 39.54201 | 19.93345 | 1020 ft | 133 kts | 341° |
| 2026-04-23 01:32 | 39.55098 | 19.93006 | 854 ft | 134 kts | 343° |
| 2026-04-23 01:32 | 39.55988 | 19.92594 | 661 ft | 137 kts | 338° |
| 2026-04-23 01:32 | 39.56889 | 19.92205 | 480 ft | 139 kts | 341° |
| 2026-04-23 01:32 | 39.57824 | 19.91871 | 332 ft | 141 kts | 344° |
| 2026-04-23 01:33 | 39.58786 | 19.91600 | 108 ft | 140 kts | 346° |
| 2026-04-23 01:33 | 39.59736 | 19.91342 | 22 ft | 133 kts | 345° |
| 2026-04-23 01:33 | 39.60431 | 19.91124 | 9 ft | 41 kts | 351° |
| 2026-04-23 01:33 | 39.60666 | 19.91094 | 8 ft | 32 kts | 352° |
| 2026-04-23 01:34 | 39.60868 | 19.91040 | 9 ft | 28 kts | 347° |
| 2026-04-23 01:34 | 39.61017 | 19.91026 | 11 ft | 16 kts | 28° |
| 2026-04-23 01:34 | 39.61043 | 19.91104 | 9 ft | 8 kts | 115° |
| 2026-04-23 01:34 | 39.61005 | 19.91139 | 9 ft | 6 kts | 161° |
| 2026-04-23 01:35 | 39.60969 | 19.91152 | 9 ft | 5 kts | 168° |
| 2026-04-23 01:35 | 39.60902 | 19.91164 | 9 ft | 12 kts | 172° |
| 2026-04-23 01:35 | 39.60818 | 19.91182 | 10 ft | 12 kts | 170° |
| 2026-04-23 01:35 | 39.60749 | 19.91223 | 9 ft | 8 kts | 98° |
| 2026-04-23 01:36 | 39.60757 | 19.91284 | 10 ft | 6 kts | 76° |
| 2026-04-23 01:36 | 39.60765 | 19.91327 | 9 ft | 0 kts | 77° |